sensor_id;sensor_type;location;lat;lon;timestamp;temperature;humidity
16801;DHT22;8518;53.236;10.384;2023-09-30T00:01:45;12.80;99.90
16801;DHT22;8518;53.236;10.384;2023-09-30T00:04:11;12.70;99.90
16801;DHT22;8518;53.236;10.384;2023-09-30T00:09:59;12.70;99.90
16801;DHT22;8518;53.236;10.384;2023-09-30T00:15:47;12.70;99.90
16801;DHT22;8518;53.236;10.384;2023-09-30T00:21:35;12.70;99.90
16801;DHT22;8518;53.236;10.384;2023-09-30T00:24:00;12.60;99.90
16801;DHT22;8518;53.236;10.384;2023-09-30T00:29:48;12.60;99.90
16801;DHT22;8518;53.236;10.384;2023-09-30T00:32:14;12.70;99.90
16801;DHT22;8518;53.236;10.384;2023-09-30T00:34:39;12.60;99.90
16801;DHT22;8518;53.236;10.384;2023-09-30T00:40:27;12.50;99.90
16801;DHT22;8518;53.236;10.384;2023-09-30T00:42:56;13.20;99.90
16801;DHT22;8518;53.236;10.384;2023-09-30T00:45:25;12.80;99.90
16801;DHT22;8518;53.236;10.384;2023-09-30T00:51:13;12.40;99.90
16801;DHT22;8518;53.236;10.384;2023-09-30T00:53:39;12.40;99.90
16801;DHT22;8518;53.236;10.384;2023-09-30T00:56:06;13.10;99.90
16801;DHT22;8518;53.236;10.384;2023-09-30T00:58:31;12.30;99.90
16801;DHT22;8518;53.236;10.384;2023-09-30T01:00:59;12.30;99.90
16801;DHT22;8518;53.236;10.384;2023-09-30T01:03:25;12.30;99.90
16801;DHT22;8518;53.236;10.384;2023-09-30T01:05:51;12.30;99.90
16801;DHT22;8518;53.236;10.384;2023-09-30T01:11:40;12.30;99.90
16801;DHT22;8518;53.236;10.384;2023-09-30T01:20:15;12.20;99.90
16801;DHT22;8518;53.236;10.384;2023-09-30T01:22:45;12.20;99.90
16801;DHT22;8518;53.236;10.384;2023-09-30T01:25:10;12.20;99.90
16801;DHT22;8518;53.236;10.384;2023-09-30T01:30:59;12.30;99.90
16801;DHT22;8518;53.236;10.384;2023-09-30T01:33:25;13.80;99.90
16801;DHT22;8518;53.236;10.384;2023-09-30T01:35:50;12.20;99.90
16801;DHT22;8518;53.236;10.384;2023-09-30T01:41:38;12.20;99.90
16801;DHT22;8518;53.236;10.384;2023-09-30T01:44:05;12.20;99.90
16801;DHT22;8518;53.236;10.384;2023-09-30T01:49:53;12.20;99.90
16801;DHT22;8518;53.236;10.384;2023-09-30T01:52:18;12.10;99.90
16801;DHT22;8518;53.236;10.384;2023-09-30T01:54:44;12.30;99.90
16801;DHT22;8518;53.236;10.384;2023-09-30T02:00:32;12.90;99.90
16801;DHT22;8518;53.236;10.384;2023-09-30T02:03:00;12.80;99.90
16801;DHT22;8518;53.236;10.384;2023-09-30T02:05:26;12.00;99.90
16801;DHT22;8518;53.236;10.384;2023-09-30T02:11:13;12.00;99.90
16801;DHT22;8518;53.236;10.384;2023-09-30T02:13:40;12.00;99.90
16801;DHT22;8518;53.236;10.384;2023-09-30T02:16:11;12.00;99.90
16801;DHT22;8518;53.236;10.384;2023-09-30T02:18:37;13.20;99.90
16801;DHT22;8518;53.236;10.384;2023-09-30T02:21:03;11.90;99.90
16801;DHT22;8518;53.236;10.384;2023-09-30T02:23:32;11.90;99.90
16801;DHT22;8518;53.236;10.384;2023-09-30T02:25:58;12.70;99.90
16801;DHT22;8518;53.236;10.384;2023-09-30T02:28:23;11.90;99.90
16801;DHT22;8518;53.236;10.384;2023-09-30T02:30:49;11.90;99.90
16801;DHT22;8518;53.236;10.384;2023-09-30T02:33:15;11.80;99.90
16801;DHT22;8518;53.236;10.384;2023-09-30T02:35:44;11.80;99.90
16801;DHT22;8518;53.236;10.384;2023-09-30T02:41:32;11.80;99.90
16801;DHT22;8518;53.236;10.384;2023-09-30T02:43:58;11.70;99.90
16801;DHT22;8518;53.236;10.384;2023-09-30T02:49:46;11.70;99.90
16801;DHT22;8518;53.236;10.384;2023-09-30T02:52:11;11.80;99.90
16801;DHT22;8518;53.236;10.384;2023-09-30T02:54:38;11.60;99.90
16801;DHT22;8518;53.236;10.384;2023-09-30T03:00:26;11.70;99.90
16801;DHT22;8518;53.236;10.384;2023-09-30T03:02:52;11.70;99.90
16801;DHT22;8518;53.236;10.384;2023-09-30T03:05:19;11.50;99.90
16801;DHT22;8518;53.236;10.384;2023-09-30T03:11:07;11.60;99.90
16801;DHT22;8518;53.236;10.384;2023-09-30T03:13:33;11.60;99.90
16801;DHT22;8518;53.236;10.384;2023-09-30T03:16:00;11.60;99.90
16801;DHT22;8518;53.236;10.384;2023-09-30T03:18:27;11.90;99.90
16801;DHT22;8518;53.236;10.384;2023-09-30T03:20:59;11.50;99.90
16801;DHT22;8518;53.236;10.384;2023-09-30T03:23:26;11.50;99.90
16801;DHT22;8518;53.236;10.384;2023-09-30T03:25:59;11.50;99.90
16801;DHT22;8518;53.236;10.384;2023-09-30T03:28:27;13.20;99.90
16801;DHT22;8518;53.236;10.384;2023-09-30T03:30:54;11.50;99.90
16801;DHT22;8518;53.236;10.384;2023-09-30T03:33:20;11.30;99.90
16801;DHT22;8518;53.236;10.384;2023-09-30T03:35:45;12.40;99.90
16801;DHT22;8518;53.236;10.384;2023-09-30T03:41:34;11.40;99.90
16801;DHT22;8518;53.236;10.384;2023-09-30T03:49:50;11.40;99.90
16801;DHT22;8518;53.236;10.384;2023-09-30T03:54:43;11.40;99.90
16801;DHT22;8518;53.236;10.384;2023-09-30T04:00:31;11.40;99.90
16801;DHT22;8518;53.236;10.384;2023-09-30T04:02:56;13.00;99.90
16801;DHT22;8518;53.236;10.384;2023-09-30T04:05:25;11.30;99.90
16801;DHT22;8518;53.236;10.384;2023-09-30T04:11:16;11.30;99.90
16801;DHT22;8518;53.236;10.384;2023-09-30T04:13:46;12.30;99.90
16801;DHT22;8518;53.236;10.384;2023-09-30T04:16:12;12.20;99.90
16801;DHT22;8518;53.236;10.384;2023-09-30T04:18:38;10.60;99.90
16801;DHT22;8518;53.236;10.384;2023-09-30T04:21:06;11.40;99.90
16801;DHT22;8518;53.236;10.384;2023-09-30T04:23:35;10.90;99.90
16801;DHT22;8518;53.236;10.384;2023-09-30T04:26:02;11.40;99.90
16801;DHT22;8518;53.236;10.384;2023-09-30T04:28:28;12.70;99.90
16801;DHT22;8518;53.236;10.384;2023-09-30T04:30:54;11.40;99.90
16801;DHT22;8518;53.236;10.384;2023-09-30T04:33:20;11.40;99.90
16801;DHT22;8518;53.236;10.384;2023-09-30T04:35:46;11.30;99.90
16801;DHT22;8518;53.236;10.384;2023-09-30T04:41:33;11.40;99.90
16801;DHT22;8518;53.236;10.384;2023-09-30T04:47:21;11.40;99.90
16801;DHT22;8518;53.236;10.384;2023-09-30T04:49:47;11.40;99.90
16801;DHT22;8518;53.236;10.384;2023-09-30T04:52:13;12.50;99.90
16801;DHT22;8518;53.236;10.384;2023-09-30T04:54:38;11.40;99.90
16801;DHT22;8518;53.236;10.384;2023-09-30T05:00:26;11.50;99.90
16801;DHT22;8518;53.236;10.384;2023-09-30T05:02:55;11.50;99.90
16801;DHT22;8518;53.236;10.384;2023-09-30T05:05:21;11.80;99.90
16801;DHT22;8518;53.236;10.384;2023-09-30T05:11:09;11.50;99.90
16801;DHT22;8518;53.236;10.384;2023-09-30T05:16:57;11.40;99.90
16801;DHT22;8518;53.236;10.384;2023-09-30T05:19:24;11.40;99.90
16801;DHT22;8518;53.236;10.384;2023-09-30T05:21:51;13.40;99.90
16801;DHT22;8518;53.236;10.384;2023-09-30T05:24:17;11.50;99.90
16801;DHT22;8518;53.236;10.384;2023-09-30T05:30:07;11.50;99.90
16801;DHT22;8518;53.236;10.384;2023-09-30T05:32:36;11.40;99.90
16801;DHT22;8518;53.236;10.384;2023-09-30T05:35:04;11.40;99.90
16801;DHT22;8518;53.236;10.384;2023-09-30T05:40:53;11.50;99.90
16801;DHT22;8518;53.236;10.384;2023-09-30T05:43:20;11.40;99.90
16801;DHT22;8518;53.236;10.384;2023-09-30T06:00:03;11.70;99.90
16801;DHT22;8518;53.236;10.384;2023-09-30T06:02:36;11.70;99.90
16801;DHT22;8518;53.236;10.384;2023-09-30T06:05:02;12.80;99.90
16801;DHT22;8518;53.236;10.384;2023-09-30T06:10:51;11.80;99.90
16801;DHT22;8518;53.236;10.384;2023-09-30T06:13:16;11.80;99.90
16801;DHT22;8518;53.236;10.384;2023-09-30T06:21:31;11.70;99.90
16801;DHT22;8518;53.236;10.384;2023-09-30T06:24:00;12.00;99.90
16801;DHT22;8518;53.236;10.384;2023-09-30T06:29:47;12.10;99.90
16801;DHT22;8518;53.236;10.384;2023-09-30T06:32:13;12.10;99.90
16801;DHT22;8518;53.236;10.384;2023-09-30T06:34:40;13.10;99.90
16801;DHT22;8518;53.236;10.384;2023-09-30T06:40:28;12.20;99.90
16801;DHT22;8518;53.236;10.384;2023-09-30T06:42:56;12.30;99.90
16801;DHT22;8518;53.236;10.384;2023-09-30T06:45:23;12.30;99.90
16801;DHT22;8518;53.236;10.384;2023-09-30T06:51:14;12.50;99.90
16801;DHT22;8518;53.236;10.384;2023-09-30T06:53:40;13.90;99.90
16801;DHT22;8518;53.236;10.384;2023-09-30T06:56:06;12.50;99.90
16801;DHT22;8518;53.236;10.384;2023-09-30T06:58:32;12.70;99.90
16801;DHT22;8518;53.236;10.384;2023-09-30T07:00:58;13.60;99.90
16801;DHT22;8518;53.236;10.384;2023-09-30T07:03:24;13.10;99.90
16801;DHT22;8518;53.236;10.384;2023-09-30T07:05:50;13.50;99.90
16801;DHT22;8518;53.236;10.384;2023-09-30T07:11:42;14.50;99.90
16801;DHT22;8518;53.236;10.384;2023-09-30T07:14:07;15.50;99.90
16801;DHT22;8518;53.236;10.384;2023-09-30T07:19:55;17.00;99.90
16801;DHT22;8518;53.236;10.384;2023-09-30T07:22:20;18.00;99.90
16801;DHT22;8518;53.236;10.384;2023-09-30T07:24:46;18.80;99.90
16801;DHT22;8518;53.236;10.384;2023-09-30T07:30:34;20.10;99.90
16801;DHT22;8518;53.236;10.384;2023-09-30T07:33:00;20.40;99.90
16801;DHT22;8518;53.236;10.384;2023-09-30T07:35:25;20.60;99.90
16801;DHT22;8518;53.236;10.384;2023-09-30T07:41:14;21.70;99.90
16801;DHT22;8518;53.236;10.384;2023-09-30T07:43:40;22.50;99.90
16801;DHT22;8518;53.236;10.384;2023-09-30T07:46:06;23.40;99.90
16801;DHT22;8518;53.236;10.384;2023-09-30T07:48:32;24.50;99.90
16801;DHT22;8518;53.236;10.384;2023-09-30T07:50:58;25.30;99.90
16801;DHT22;8518;53.236;10.384;2023-09-30T07:53:32;25.40;99.90
16801;DHT22;8518;53.236;10.384;2023-09-30T07:56:01;24.90;99.90
16801;DHT22;8518;53.236;10.384;2023-09-30T07:58:28;24.80;99.90
16801;DHT22;8518;53.236;10.384;2023-09-30T08:00:54;25.10;99.90
16801;DHT22;8518;53.236;10.384;2023-09-30T08:03:21;25.30;99.90
16801;DHT22;8518;53.236;10.384;2023-09-30T08:05:50;25.30;99.90
16801;DHT22;8518;53.236;10.384;2023-09-30T08:11:41;24.70;99.90
16801;DHT22;8518;53.236;10.384;2023-09-30T08:14:07;23.80;99.90
16801;DHT22;8518;53.236;10.384;2023-09-30T08:19:56;23.90;99.90
16801;DHT22;8518;53.236;10.384;2023-09-30T08:22:31;24.40;99.90
16801;DHT22;8518;53.236;10.384;2023-09-30T08:25:00;24.60;99.90
16801;DHT22;8518;53.236;10.384;2023-09-30T08:30:47;26.30;99.10
16801;DHT22;8518;53.236;10.384;2023-09-30T08:33:14;26.60;97.70
16801;DHT22;8518;53.236;10.384;2023-09-30T08:35:41;27.20;96.90
16801;DHT22;8518;53.236;10.384;2023-09-30T08:41:36;26.50;96.20
16801;DHT22;8518;53.236;10.384;2023-09-30T08:44:03;26.20;96.30
16801;DHT22;8518;53.236;10.384;2023-09-30T08:49:51;26.20;96.60
16801;DHT22;8518;53.236;10.384;2023-09-30T08:55:44;26.40;95.80
16801;DHT22;8518;53.236;10.384;2023-09-30T09:01:34;25.40;96.90
16801;DHT22;8518;53.236;10.384;2023-09-30T09:04:11;24.60;98.60
16801;DHT22;8518;53.236;10.384;2023-09-30T09:12:35;27.20;95.20
16801;DHT22;8518;53.236;10.384;2023-09-30T09:15:05;27.40;94.60
16801;DHT22;8518;53.236;10.384;2023-09-30T09:21:17;27.30;94.60
16801;DHT22;8518;53.236;10.384;2023-09-30T09:23:44;27.60;93.80
16801;DHT22;8518;53.236;10.384;2023-09-30T09:26:12;27.40;93.50
16801;DHT22;8518;53.236;10.384;2023-09-30T09:28:38;27.40;93.10
16801;DHT22;8518;53.236;10.384;2023-09-30T09:31:26;27.60;93.10
16801;DHT22;8518;53.236;10.384;2023-09-30T09:33:51;27.70;92.70
16801;DHT22;8518;53.236;10.384;2023-09-30T09:42:32;27.30;92.30
16801;DHT22;8518;53.236;10.384;2023-09-30T09:45:01;27.90;92.10
16801;DHT22;8518;53.236;10.384;2023-09-30T09:50:49;29.50;88.10
16801;DHT22;8518;53.236;10.384;2023-09-30T09:53:18;31.00;83.00
16801;DHT22;8518;53.236;10.384;2023-09-30T09:55:47;30.90;78.40
16801;DHT22;8518;53.236;10.384;2023-09-30T09:58:17;31.00;75.20
16801;DHT22;8518;53.236;10.384;2023-09-30T10:00:46;31.20;74.00
16801;DHT22;8518;53.236;10.384;2023-09-30T10:03:15;31.10;74.40
16801;DHT22;8518;53.236;10.384;2023-09-30T10:05:44;31.10;71.60
16801;DHT22;8518;53.236;10.384;2023-09-30T10:11:32;28.50;77.90
16801;DHT22;8518;53.236;10.384;2023-09-30T10:17:49;28.80;78.50
16801;DHT22;8518;53.236;10.384;2023-09-30T10:20:08;28.70;77.20
16801;DHT22;8518;53.236;10.384;2023-09-30T10:22:39;27.90;80.10
16801;DHT22;8518;53.236;10.384;2023-09-30T10:25:33;28.10;79.10
16801;DHT22;8518;53.236;10.384;2023-09-30T10:31:22;26.10;84.00
16801;DHT22;8518;53.236;10.384;2023-09-30T10:37:23;24.70;91.70
16801;DHT22;8518;53.236;10.384;2023-09-30T10:39:54;25.50;91.70
16801;DHT22;8518;53.236;10.384;2023-09-30T10:42:45;26.60;89.40
16801;DHT22;8518;53.236;10.384;2023-09-30T10:45:41;27.40;85.80
16801;DHT22;8518;53.236;10.384;2023-09-30T10:50:59;28.90;80.00
16801;DHT22;8518;53.236;10.384;2023-09-30T10:53:31;27.90;80.10
16801;DHT22;8518;53.236;10.384;2023-09-30T10:56:00;27.50;82.70
16801;DHT22;8518;53.236;10.384;2023-09-30T11:01:21;25.10;88.30
16801;DHT22;8518;53.236;10.384;2023-09-30T11:03:49;25.00;89.30
16801;DHT22;8518;53.236;10.384;2023-09-30T11:06:19;25.90;87.50
16801;DHT22;8518;53.236;10.384;2023-09-30T11:08:56;25.70;86.30
16801;DHT22;8518;53.236;10.384;2023-09-30T11:11:41;25.90;87.80
16801;DHT22;8518;53.236;10.384;2023-09-30T11:14:28;27.10;86.70
16801;DHT22;8518;53.236;10.384;2023-09-30T11:20:17;28.20;81.20
16801;DHT22;8518;53.236;10.384;2023-09-30T11:22:44;29.40;76.20
16801;DHT22;8518;53.236;10.384;2023-09-30T11:25:20;29.70;72.80
16801;DHT22;8518;53.236;10.384;2023-09-30T11:31:15;28.40;72.40
16801;DHT22;8518;53.236;10.384;2023-09-30T11:33:50;28.70;74.10
16801;DHT22;8518;53.236;10.384;2023-09-30T11:36:20;29.10;70.90
16801;DHT22;8518;53.236;10.384;2023-09-30T11:38:51;29.20;70.00
16801;DHT22;8518;53.236;10.384;2023-09-30T11:41:18;28.00;74.10
16801;DHT22;8518;53.236;10.384;2023-09-30T11:44:05;27.60;76.60
16801;DHT22;8518;53.236;10.384;2023-09-30T11:49:54;28.40;70.80
16801;DHT22;8518;53.236;10.384;2023-09-30T11:52:28;29.10;70.40
16801;DHT22;8518;53.236;10.384;2023-09-30T11:54:54;29.70;67.90
16801;DHT22;8518;53.236;10.384;2023-09-30T12:00:46;31.50;60.90
16801;DHT22;8518;53.236;10.384;2023-09-30T12:03:12;31.30;58.20
16801;DHT22;8518;53.236;10.384;2023-09-30T12:05:39;31.40;57.80
16801;DHT22;8518;53.236;10.384;2023-09-30T12:11:27;30.90;56.30
16801;DHT22;8518;53.236;10.384;2023-09-30T12:13:54;31.00;54.90
16801;DHT22;8518;53.236;10.384;2023-09-30T12:19:42;30.70;54.30
16801;DHT22;8518;53.236;10.384;2023-09-30T12:22:11;32.10;53.10
16801;DHT22;8518;53.236;10.384;2023-09-30T12:24:39;33.30;50.40
16801;DHT22;8518;53.236;10.384;2023-09-30T12:30:30;33.50;47.40
16801;DHT22;8518;53.236;10.384;2023-09-30T12:33:00;32.50;46.80
16801;DHT22;8518;53.236;10.384;2023-09-30T12:35:26;31.60;47.40
16801;DHT22;8518;53.236;10.384;2023-09-30T12:41:14;29.20;50.20
16801;DHT22;8518;53.236;10.384;2023-09-30T12:43:43;28.40;52.80
16801;DHT22;8518;53.236;10.384;2023-09-30T12:46:09;28.30;53.50
16801;DHT22;8518;53.236;10.384;2023-09-30T12:48:39;27.70;55.80
16801;DHT22;8518;53.236;10.384;2023-09-30T12:51:04;27.40;55.50
16801;DHT22;8518;53.236;10.384;2023-09-30T12:53:37;27.80;55.90
16801;DHT22;8518;53.236;10.384;2023-09-30T12:56:06;28.30;55.10
16801;DHT22;8518;53.236;10.384;2023-09-30T12:58:35;28.60;53.80
16801;DHT22;8518;53.236;10.384;2023-09-30T13:01:00;29.10;53.40
16801;DHT22;8518;53.236;10.384;2023-09-30T13:03:26;28.70;52.80
16801;DHT22;8518;53.236;10.384;2023-09-30T13:06:12;28.70;54.80
16801;DHT22;8518;53.236;10.384;2023-09-30T13:08:42;28.70;52.80
16801;DHT22;8518;53.236;10.384;2023-09-30T13:11:11;27.30;54.40
16801;DHT22;8518;53.236;10.384;2023-09-30T13:13:39;27.80;54.10
16801;DHT22;8518;53.236;10.384;2023-09-30T13:16:10;28.00;54.80
16801;DHT22;8518;53.236;10.384;2023-09-30T13:18:48;28.20;53.40
16801;DHT22;8518;53.236;10.384;2023-09-30T13:21:24;28.80;53.40
16801;DHT22;8518;53.236;10.384;2023-09-30T13:23:51;29.10;53.80
16801;DHT22;8518;53.236;10.384;2023-09-30T13:29:42;30.60;50.10
16801;DHT22;8518;53.236;10.384;2023-09-30T13:32:09;30.80;50.20
16801;DHT22;8518;53.236;10.384;2023-09-30T13:34:35;30.80;48.00
16801;DHT22;8518;53.236;10.384;2023-09-30T13:40:26;30.20;48.10
16801;DHT22;8518;53.236;10.384;2023-09-30T13:46:17;27.30;50.10
16801;DHT22;8518;53.236;10.384;2023-09-30T13:48:46;26.00;54.10
16801;DHT22;8518;53.236;10.384;2023-09-30T13:51:16;25.40;56.80
16801;DHT22;8518;53.236;10.384;2023-09-30T13:53:41;25.30;57.60
16801;DHT22;8518;53.236;10.384;2023-09-30T13:56:14;25.10;56.20
16801;DHT22;8518;53.236;10.384;2023-09-30T13:58:40;24.60;58.50
16801;DHT22;8518;53.236;10.384;2023-09-30T14:01:05;23.80;61.00
16801;DHT22;8518;53.236;10.384;2023-09-30T14:03:35;24.60;65.10
16801;DHT22;8518;53.236;10.384;2023-09-30T14:06:02;23.10;67.30
16801;DHT22;8518;53.236;10.384;2023-09-30T14:08:27;23.00;70.00
16801;DHT22;8518;53.236;10.384;2023-09-30T14:10:58;23.00;73.70
16801;DHT22;8518;53.236;10.384;2023-09-30T14:13:26;23.10;73.60
16801;DHT22;8518;53.236;10.384;2023-09-30T14:15:55;23.10;73.50
16801;DHT22;8518;53.236;10.384;2023-09-30T14:18:41;23.00;73.20
16801;DHT22;8518;53.236;10.384;2023-09-30T14:21:07;22.80;74.60
16801;DHT22;8518;53.236;10.384;2023-09-30T14:23:40;22.60;74.60
16801;DHT22;8518;53.236;10.384;2023-09-30T14:26:12;22.00;77.80
16801;DHT22;8518;53.236;10.384;2023-09-30T14:28:37;21.60;82.00
16801;DHT22;8518;53.236;10.384;2023-09-30T14:31:06;21.40;86.30
16801;DHT22;8518;53.236;10.384;2023-09-30T14:33:35;21.20;86.90
16801;DHT22;8518;53.236;10.384;2023-09-30T14:36:02;21.10;89.10
16801;DHT22;8518;53.236;10.384;2023-09-30T14:38:31;21.10;89.60
16801;DHT22;8518;53.236;10.384;2023-09-30T14:40:57;20.90;88.80
16801;DHT22;8518;53.236;10.384;2023-09-30T14:43:25;20.70;92.00
16801;DHT22;8518;53.236;10.384;2023-09-30T14:45:51;20.50;93.00
16801;DHT22;8518;53.236;10.384;2023-09-30T14:51:39;20.70;93.00
16801;DHT22;8518;53.236;10.384;2023-09-30T14:54:04;20.80;93.10
16801;DHT22;8518;53.236;10.384;2023-09-30T14:59:53;20.60;92.80
16801;DHT22;8518;53.236;10.384;2023-09-30T15:02:19;20.50;93.40
16801;DHT22;8518;53.236;10.384;2023-09-30T15:04:44;20.40;92.70
16801;DHT22;8518;53.236;10.384;2023-09-30T15:10:34;20.00;94.60
16801;DHT22;8518;53.236;10.384;2023-09-30T15:13:01;19.80;95.20
16801;DHT22;8518;53.236;10.384;2023-09-30T15:15:29;19.80;96.70
16801;DHT22;8518;53.236;10.384;2023-09-30T15:21:17;19.40;98.50
16801;DHT22;8518;53.236;10.384;2023-09-30T15:23:46;19.30;99.90
16801;DHT22;8518;53.236;10.384;2023-09-30T15:26:17;19.20;99.80
16801;DHT22;8518;53.236;10.384;2023-09-30T15:28:46;19.00;99.90
16801;DHT22;8518;53.236;10.384;2023-09-30T15:31:16;18.80;99.90
16801;DHT22;8518;53.236;10.384;2023-09-30T15:33:44;18.80;99.90
16801;DHT22;8518;53.236;10.384;2023-09-30T15:36:14;18.70;99.90
16801;DHT22;8518;53.236;10.384;2023-09-30T15:38:42;18.60;99.90
16801;DHT22;8518;53.236;10.384;2023-09-30T15:41:20;18.60;99.90
16801;DHT22;8518;53.236;10.384;2023-09-30T15:43:49;18.50;99.90
16801;DHT22;8518;53.236;10.384;2023-09-30T15:46:14;18.70;99.90
16801;DHT22;8518;53.236;10.384;2023-09-30T15:48:43;18.50;99.90
16801;DHT22;8518;53.236;10.384;2023-09-30T15:51:11;18.30;99.90
16801;DHT22;8518;53.236;10.384;2023-09-30T15:53:37;18.30;99.90
16801;DHT22;8518;53.236;10.384;2023-09-30T15:56:03;18.30;99.90
16801;DHT22;8518;53.236;10.384;2023-09-30T15:58:32;18.20;99.90
16801;DHT22;8518;53.236;10.384;2023-09-30T16:01:00;18.10;99.90
16801;DHT22;8518;53.236;10.384;2023-09-30T16:03:26;18.10;99.90
16801;DHT22;8518;53.236;10.384;2023-09-30T16:05:52;18.10;99.90
16801;DHT22;8518;53.236;10.384;2023-09-30T16:11:40;17.90;99.90
16801;DHT22;8518;53.236;10.384;2023-09-30T16:14:05;18.00;99.90
16801;DHT22;8518;53.236;10.384;2023-09-30T16:19:53;17.60;99.90
16801;DHT22;8518;53.236;10.384;2023-09-30T16:22:22;17.40;99.90
16801;DHT22;8518;53.236;10.384;2023-09-30T16:24:51;17.30;99.90
16801;DHT22;8518;53.236;10.384;2023-09-30T16:30:38;17.00;99.90
16801;DHT22;8518;53.236;10.384;2023-09-30T16:33:04;16.90;99.90
16801;DHT22;8518;53.236;10.384;2023-09-30T16:35:29;16.90;99.90
16801;DHT22;8518;53.236;10.384;2023-09-30T16:41:23;16.80;99.90
16801;DHT22;8518;53.236;10.384;2023-09-30T16:47:11;16.70;99.90
16801;DHT22;8518;53.236;10.384;2023-09-30T16:49:39;16.60;99.90
16801;DHT22;8518;53.236;10.384;2023-09-30T16:52:05;16.50;99.90
16801;DHT22;8518;53.236;10.384;2023-09-30T16:54:30;16.50;99.90
16801;DHT22;8518;53.236;10.384;2023-09-30T17:00:21;16.50;99.90
16801;DHT22;8518;53.236;10.384;2023-09-30T17:02:54;16.30;99.90
16801;DHT22;8518;53.236;10.384;2023-09-30T17:05:24;16.20;99.90
16801;DHT22;8518;53.236;10.384;2023-09-30T17:11:42;16.10;99.90
16801;DHT22;8518;53.236;10.384;2023-09-30T17:17:30;15.90;99.90
16801;DHT22;8518;53.236;10.384;2023-09-30T17:20:01;16.00;99.90
16801;DHT22;8518;53.236;10.384;2023-09-30T17:22:33;15.80;99.90
16801;DHT22;8518;53.236;10.384;2023-09-30T17:25:11;15.60;99.90
16801;DHT22;8518;53.236;10.384;2023-09-30T17:31:05;15.50;99.90
16801;DHT22;8518;53.236;10.384;2023-09-30T17:36:56;15.50;99.90
16801;DHT22;8518;53.236;10.384;2023-09-30T17:39:21;15.30;99.90
16801;DHT22;8518;53.236;10.384;2023-09-30T17:41:56;15.30;99.90
16801;DHT22;8518;53.236;10.384;2023-09-30T17:44:26;15.20;99.90
16801;DHT22;8518;53.236;10.384;2023-09-30T17:50:16;15.20;99.90
16801;DHT22;8518;53.236;10.384;2023-09-30T17:52:43;15.10;99.90
16801;DHT22;8518;53.236;10.384;2023-09-30T17:55:08;15.10;99.90
16801;DHT22;8518;53.236;10.384;2023-09-30T18:01:02;15.10;99.90
16801;DHT22;8518;53.236;10.384;2023-09-30T18:03:31;14.80;99.90
16801;DHT22;8518;53.236;10.384;2023-09-30T18:06:09;15.00;99.90
16801;DHT22;8518;53.236;10.384;2023-09-30T18:08:39;15.00;99.90
16801;DHT22;8518;53.236;10.384;2023-09-30T18:11:07;14.90;99.90
16801;DHT22;8518;53.236;10.384;2023-09-30T18:13:34;14.90;99.90
16801;DHT22;8518;53.236;10.384;2023-09-30T18:16:02;14.90;99.90
16801;DHT22;8518;53.236;10.384;2023-09-30T18:18:32;14.90;99.90
16801;DHT22;8518;53.236;10.384;2023-09-30T18:21:02;14.90;99.90
16801;DHT22;8518;53.236;10.384;2023-09-30T18:23:32;14.80;99.90
16801;DHT22;8518;53.236;10.384;2023-09-30T18:25:59;16.00;99.90
16801;DHT22;8518;53.236;10.384;2023-09-30T18:28:27;14.90;99.90
16801;DHT22;8518;53.236;10.384;2023-09-30T18:30:58;14.80;99.90
16801;DHT22;8518;53.236;10.384;2023-09-30T18:33:24;14.80;99.90
16801;DHT22;8518;53.236;10.384;2023-09-30T18:35:56;14.80;99.90
16801;DHT22;8518;53.236;10.384;2023-09-30T18:38:24;14.90;99.90
16801;DHT22;8518;53.236;10.384;2023-09-30T18:40:51;14.80;99.90
16801;DHT22;8518;53.236;10.384;2023-09-30T18:43:25;14.90;99.90
16801;DHT22;8518;53.236;10.384;2023-09-30T18:45:52;14.80;99.90
16801;DHT22;8518;53.236;10.384;2023-09-30T18:51:43;14.80;99.90
16801;DHT22;8518;53.236;10.384;2023-09-30T18:54:08;14.70;99.90
16801;DHT22;8518;53.236;10.384;2023-09-30T19:00:00;14.70;99.90
16801;DHT22;8518;53.236;10.384;2023-09-30T19:02:27;14.70;99.90
16801;DHT22;8518;53.236;10.384;2023-09-30T19:04:52;14.70;99.90
16801;DHT22;8518;53.236;10.384;2023-09-30T19:10:40;14.70;99.90
16801;DHT22;8518;53.236;10.384;2023-09-30T19:13:07;14.80;99.90
16801;DHT22;8518;53.236;10.384;2023-09-30T19:15:36;14.70;99.90
16801;DHT22;8518;53.236;10.384;2023-09-30T19:21:26;14.60;99.90
16801;DHT22;8518;53.236;10.384;2023-09-30T19:23:51;14.60;99.90
16801;DHT22;8518;53.236;10.384;2023-09-30T19:26:20;14.80;99.90
16801;DHT22;8518;53.236;10.384;2023-09-30T19:28:46;14.60;99.90
16801;DHT22;8518;53.236;10.384;2023-09-30T19:31:15;14.60;99.90
16801;DHT22;8518;53.236;10.384;2023-09-30T19:33:42;14.60;99.90
16801;DHT22;8518;53.236;10.384;2023-09-30T19:36:16;14.80;99.90
16801;DHT22;8518;53.236;10.384;2023-09-30T19:38:44;14.60;99.90
16801;DHT22;8518;53.236;10.384;2023-09-30T19:41:19;14.50;99.90
16801;DHT22;8518;53.236;10.384;2023-09-30T19:43:50;14.60;99.90
16801;DHT22;8518;53.236;10.384;2023-09-30T19:46:21;14.40;99.90
16801;DHT22;8518;53.236;10.384;2023-09-30T19:48:49;14.60;99.90
16801;DHT22;8518;53.236;10.384;2023-09-30T19:51:22;14.60;99.90
16801;DHT22;8518;53.236;10.384;2023-09-30T19:53:52;14.60;99.90
16801;DHT22;8518;53.236;10.384;2023-09-30T19:56:21;14.70;99.90
16801;DHT22;8518;53.236;10.384;2023-09-30T19:58:49;15.40;99.90
16801;DHT22;8518;53.236;10.384;2023-09-30T20:01:14;14.70;99.90
16801;DHT22;8518;53.236;10.384;2023-09-30T20:03:41;14.70;99.90
16801;DHT22;8518;53.236;10.384;2023-09-30T20:06:23;14.70;99.90
16801;DHT22;8518;53.236;10.384;2023-09-30T20:08:50;14.70;99.90
16801;DHT22;8518;53.236;10.384;2023-09-30T20:11:20;14.80;99.90
16801;DHT22;8518;53.236;10.384;2023-09-30T20:13:49;14.80;99.90
16801;DHT22;8518;53.236;10.384;2023-09-30T20:16:15;14.90;99.90
16801;DHT22;8518;53.236;10.384;2023-09-30T20:18:51;15.30;99.90
16801;DHT22;8518;53.236;10.384;2023-09-30T20:21:17;15.30;99.90
16801;DHT22;8518;53.236;10.384;2023-09-30T20:27:29;13.90;99.90
16801;DHT22;8518;53.236;10.384;2023-09-30T20:29:56;14.80;99.90
16801;DHT22;8518;53.236;10.384;2023-09-30T20:32:26;14.70;99.90
16801;DHT22;8518;53.236;10.384;2023-09-30T20:34:57;14.70;99.90
16801;DHT22;8518;53.236;10.384;2023-09-30T20:40:53;14.70;99.90
16801;DHT22;8518;53.236;10.384;2023-09-30T20:43:22;14.70;99.90
16801;DHT22;8518;53.236;10.384;2023-09-30T20:45:50;14.70;99.90
16801;DHT22;8518;53.236;10.384;2023-09-30T20:51:38;14.70;99.90
16801;DHT22;8518;53.236;10.384;2023-09-30T20:54:11;14.70;99.90
16801;DHT22;8518;53.236;10.384;2023-09-30T21:00:04;14.60;99.90
16801;DHT22;8518;53.236;10.384;2023-09-30T21:02:31;14.60;99.90
16801;DHT22;8518;53.236;10.384;2023-09-30T21:05:01;14.60;99.90
16801;DHT22;8518;53.236;10.384;2023-09-30T21:10:52;14.50;99.90